KTPA

Tampa International Airport

Tampa, Florida, USA
METAR KTPA 100653Z 32007KT 8SM -RA SCT016 SCT029 BKN050 16/14 A2998 RMK AO2 RAB47 SLP151 P0000 T01610144
Observed Flight Rules
Dec-10 @ 06:53 UTC (35 minutes ago) Visual Flight Rules
Wind Visibility Clouds Conditions
320° at 7 knots 8 miles
  • Scattered at 1,600' AGL
  • Scattered at 2,900' AGL
  • Broken at 5,000' AGL
  • Light Rain
Temperatures Readings Precipitation
Current 16°C / 61°F
Dewpoint 14°C / 57°F
Humidity 88%
Altimeter 29.98" Hg
Pressure 1015.1 hPa
Elevation 11
Current Rain 0.005
METAR KTPA 100653Z 32007KT 8SM -RA SCT016 SCT029 BKN050 16/14 A2998 RMK AO2 RAB47 SLP151 P0000 T01610144
Observed Flight Rules
Dec-10 @ 06:53 UTC
(35 minutes ago)
VFR
Wind Visibility
320° at 7 knots 8 miles
Clouds
  • Scattered at 1,600' AGL
  • Scattered at 2,900' AGL
  • Broken at 5,000' AGL
Conditions
  • Light Rain
Temperature Dewpoint
16°C / 61°F 14°C / 57°F
Humidity Altimeter Pressure
88% 29.98" Hg 1015.1 hPa
Current Rain
0.005